sensor_id;sensor_type;location;lat;lon;timestamp;P1;durP1;ratioP1;P2;durP2;ratioP2
4325;SDS011;58429;49.826;10.880;2023-04-29T00:00:34;10;;;4.4;;
4325;SDS011;58429;49.826;10.880;2023-04-29T00:01:34;10;;;4.4;;
4325;SDS011;58429;49.826;10.880;2023-04-29T00:02:34;10;;;4.4;;
4325;SDS011;58429;49.826;10.880;2023-04-29T00:03:34;8.8;;;4.3;;
4325;SDS011;58429;49.826;10.880;2023-04-29T00:04:34;8.8;;;4.3;;
4325;SDS011;58429;49.826;10.880;2023-04-29T00:05:34;8.8;;;4.3;;
4325;SDS011;58429;49.826;10.880;2023-04-29T00:06:34;13.1;;;5.9;;
4325;SDS011;58429;49.826;10.880;2023-04-29T00:07:34;13.1;;;5.9;;
4325;SDS011;58429;49.826;10.880;2023-04-29T00:08:34;13.1;;;5.9;;
4325;SDS011;58429;49.826;10.880;2023-04-29T00:09:34;14.1;;;6.1;;
4325;SDS011;58429;49.826;10.880;2023-04-29T00:10:34;14.1;;;6.1;;
4325;SDS011;58429;49.826;10.880;2023-04-29T00:11:34;14.1;;;6.1;;
4325;SDS011;58429;49.826;10.880;2023-04-29T00:12:34;10.8;;;4.9;;
4325;SDS011;58429;49.826;10.880;2023-04-29T00:13:34;10.8;;;4.9;;
4325;SDS011;58429;49.826;10.880;2023-04-29T00:14:34;10.8;;;4.9;;
4325;SDS011;58429;49.826;10.880;2023-04-29T00:15:34;9.4;;;4.4;;
4325;SDS011;58429;49.826;10.880;2023-04-29T00:16:34;9.4;;;4.4;;
4325;SDS011;58429;49.826;10.880;2023-04-29T00:17:34;9.4;;;4.4;;
4325;SDS011;58429;49.826;10.880;2023-04-29T00:18:34;7.5;;;3.9;;
4325;SDS011;58429;49.826;10.880;2023-04-29T00:19:34;7.5;;;3.9;;
4325;SDS011;58429;49.826;10.880;2023-04-29T00:20:34;7.5;;;3.9;;
4325;SDS011;58429;49.826;10.880;2023-04-29T00:21:34;8.6;;;3.8;;
4325;SDS011;58429;49.826;10.880;2023-04-29T00:22:34;8.6;;;3.8;;
4325;SDS011;58429;49.826;10.880;2023-04-29T00:23:34;8.6;;;3.8;;
4325;SDS011;58429;49.826;10.880;2023-04-29T00:24:34;7.8;;;3.6;;
4325;SDS011;58429;49.826;10.880;2023-04-29T00:25:34;7.8;;;3.6;;
4325;SDS011;58429;49.826;10.880;2023-04-29T00:26:34;7.8;;;3.6;;
4325;SDS011;58429;49.826;10.880;2023-04-29T00:27:34;8.7;;;4.2;;
4325;SDS011;58429;49.826;10.880;2023-04-29T00:28:34;8.7;;;4.2;;
4325;SDS011;58429;49.826;10.880;2023-04-29T00:29:34;8.7;;;4.2;;
4325;SDS011;58429;49.826;10.880;2023-04-29T00:30:34;9.5;;;4.6;;
4325;SDS011;58429;49.826;10.880;2023-04-29T00:31:34;9.5;;;4.6;;
4325;SDS011;58429;49.826;10.880;2023-04-29T00:32:34;9.5;;;4.6;;
4325;SDS011;58429;49.826;10.880;2023-04-29T00:33:34;9.1;;;4.3;;
4325;SDS011;58429;49.826;10.880;2023-04-29T00:34:34;9.1;;;4.3;;
4325;SDS011;58429;49.826;10.880;2023-04-29T00:35:34;9.1;;;4.3;;
4325;SDS011;58429;49.826;10.880;2023-04-29T00:36:34;7.7;;;3.6;;
4325;SDS011;58429;49.826;10.880;2023-04-29T00:37:34;7.7;;;3.6;;
4325;SDS011;58429;49.826;10.880;2023-04-29T00:38:34;7.7;;;3.6;;
4325;SDS011;58429;49.826;10.880;2023-04-29T00:39:34;7.3;;;3.5;;
4325;SDS011;58429;49.826;10.880;2023-04-29T00:40:34;7.3;;;3.5;;
4325;SDS011;58429;49.826;10.880;2023-04-29T00:41:34;7.3;;;3.5;;
4325;SDS011;58429;49.826;10.880;2023-04-29T00:42:34;8.7;;;3.6;;
4325;SDS011;58429;49.826;10.880;2023-04-29T00:43:34;8.7;;;3.6;;
4325;SDS011;58429;49.826;10.880;2023-04-29T00:44:34;8.7;;;3.6;;
4325;SDS011;58429;49.826;10.880;2023-04-29T00:45:34;6.7;;;2.9;;
4325;SDS011;58429;49.826;10.880;2023-04-29T00:46:34;6.7;;;2.9;;
4325;SDS011;58429;49.826;10.880;2023-04-29T00:47:34;6.7;;;2.9;;
4325;SDS011;58429;49.826;10.880;2023-04-29T00:48:34;8.8;;;3.1;;
4325;SDS011;58429;49.826;10.880;2023-04-29T00:49:34;8.8;;;3.1;;
4325;SDS011;58429;49.826;10.880;2023-04-29T00:50:34;8.8;;;3.1;;
4325;SDS011;58429;49.826;10.880;2023-04-29T00:51:34;7.6;;;3.2;;
4325;SDS011;58429;49.826;10.880;2023-04-29T00:52:34;7.6;;;3.2;;
4325;SDS011;58429;49.826;10.880;2023-04-29T00:53:34;7.6;;;3.2;;
4325;SDS011;58429;49.826;10.880;2023-04-29T00:54:34;6.7;;;2.7;;
4325;SDS011;58429;49.826;10.880;2023-04-29T00:55:34;6.7;;;2.7;;
4325;SDS011;58429;49.826;10.880;2023-04-29T00:56:34;6.7;;;2.7;;
4325;SDS011;58429;49.826;10.880;2023-04-29T00:57:34;7;;;3;;
4325;SDS011;58429;49.826;10.880;2023-04-29T00:58:34;7;;;3;;
4325;SDS011;58429;49.826;10.880;2023-04-29T00:59:34;7;;;3;;
4325;SDS011;58429;49.826;10.880;2023-04-29T01:00:34;8.8;;;3.5;;
4325;SDS011;58429;49.826;10.880;2023-04-29T01:01:34;8.8;;;3.5;;
4325;SDS011;58429;49.826;10.880;2023-04-29T01:02:34;8.8;;;3.5;;
4325;SDS011;58429;49.826;10.880;2023-04-29T01:03:34;7;;;3;;
4325;SDS011;58429;49.826;10.880;2023-04-29T01:04:34;7;;;3;;
4325;SDS011;58429;49.826;10.880;2023-04-29T01:05:34;7;;;3;;
4325;SDS011;58429;49.826;10.880;2023-04-29T01:06:36;7.5;;;3.2;;
4325;SDS011;58429;49.826;10.880;2023-04-29T01:07:36;7.5;;;3.2;;
4325;SDS011;58429;49.826;10.880;2023-04-29T01:08:36;7.5;;;3.2;;
4325;SDS011;58429;49.826;10.880;2023-04-29T01:09:38;7.5;;;3.2;;
4325;SDS011;58429;49.826;10.880;2023-04-29T01:10:35;7.5;;;3.2;;
4325;SDS011;58429;49.826;10.880;2023-04-29T01:11:34;7.5;;;3.2;;
4325;SDS011;58429;49.826;10.880;2023-04-29T01:12:37;7.5;;;3.2;;
4325;SDS011;58429;49.826;10.880;2023-04-29T01:13:36;9.2;;;4.5;;
4325;SDS011;58429;49.826;10.880;2023-04-29T01:14:34;9.2;;;4.5;;
4325;SDS011;58429;49.826;10.880;2023-04-29T01:15:37;9.2;;;4.5;;
4325;SDS011;58429;49.826;10.880;2023-04-29T01:16:36;9.3;;;4.6;;
4325;SDS011;58429;49.826;10.880;2023-04-29T01:17:35;9.3;;;4.6;;
4325;SDS011;58429;49.826;10.880;2023-04-29T01:18:36;9.3;;;4.6;;
4325;SDS011;58429;49.826;10.880;2023-04-29T01:19:38;9.6;;;4.5;;
4325;SDS011;58429;49.826;10.880;2023-04-29T01:20:34;9.6;;;4.5;;
4325;SDS011;58429;49.826;10.880;2023-04-29T01:21:44;9.6;;;4.5;;
4325;SDS011;58429;49.826;10.880;2023-04-29T01:22:34;8.5;;;4.3;;
4325;SDS011;58429;49.826;10.880;2023-04-29T01:23:34;8.5;;;4.3;;
4325;SDS011;58429;49.826;10.880;2023-04-29T01:24:34;8.5;;;4.3;;
4325;SDS011;58429;49.826;10.880;2023-04-29T01:25:34;20.2;;;10.7;;
4325;SDS011;58429;49.826;10.880;2023-04-29T01:26:34;20.2;;;10.7;;
4325;SDS011;58429;49.826;10.880;2023-04-29T01:27:36;20.2;;;10.7;;
4325;SDS011;58429;49.826;10.880;2023-04-29T01:28:37;13.2;;;7.6;;
4325;SDS011;58429;49.826;10.880;2023-04-29T01:29:39;13.2;;;7.6;;
4325;SDS011;58429;49.826;10.880;2023-04-29T01:30:36;13.2;;;7.6;;
4325;SDS011;58429;49.826;10.880;2023-04-29T01:31:35;13.8;;;7.9;;
4325;SDS011;58429;49.826;10.880;2023-04-29T01:32:36;13.8;;;7.9;;
4325;SDS011;58429;49.826;10.880;2023-04-29T01:33:36;13.8;;;7.9;;
4325;SDS011;58429;49.826;10.880;2023-04-29T01:34:35;10.5;;;5.8;;
4325;SDS011;58429;49.826;10.880;2023-04-29T01:35:39;10.5;;;5.8;;
4325;SDS011;58429;49.826;10.880;2023-04-29T01:36:35;10.5;;;5.8;;
4325;SDS011;58429;49.826;10.880;2023-04-29T01:37:37;10;;;4.9;;
4325;SDS011;58429;49.826;10.880;2023-04-29T01:38:35;10;;;4.9;;
4325;SDS011;58429;49.826;10.880;2023-04-29T01:39:36;10;;;4.9;;
4325;SDS011;58429;49.826;10.880;2023-04-29T01:40:36;12;;;5.5;;
4325;SDS011;58429;49.826;10.880;2023-04-29T01:41:34;12;;;5.5;;
4325;SDS011;58429;49.826;10.880;2023-04-29T01:42:35;12;;;5.5;;
4325;SDS011;58429;49.826;10.880;2023-04-29T01:43:34;15.6;;;7.2;;
4325;SDS011;58429;49.826;10.880;2023-04-29T01:44:34;15.6;;;7.2;;
4325;SDS011;58429;49.826;10.880;2023-04-29T01:45:34;15.6;;;7.2;;
4325;SDS011;58429;49.826;10.880;2023-04-29T01:46:34;15.6;;;6.3;;
4325;SDS011;58429;49.826;10.880;2023-04-29T01:47:34;15.6;;;6.3;;
4325;SDS011;58429;49.826;10.880;2023-04-29T01:48:34;15.6;;;6.3;;
4325;SDS011;58429;49.826;10.880;2023-04-29T01:49:34;11;;;5;;
4325;SDS011;58429;49.826;10.880;2023-04-29T01:50:34;11;;;5;;
4325;SDS011;58429;49.826;10.880;2023-04-29T01:51:34;11;;;5;;
4325;SDS011;58429;49.826;10.880;2023-04-29T01:52:34;38.7;;;7.4;;
4325;SDS011;58429;49.826;10.880;2023-04-29T01:53:34;38.7;;;7.4;;
4325;SDS011;58429;49.826;10.880;2023-04-29T01:54:34;38.7;;;7.4;;
4325;SDS011;58429;49.826;10.880;2023-04-29T01:55:34;164.5;;;12;;
4325;SDS011;58429;49.826;10.880;2023-04-29T01:56:34;164.5;;;12;;
4325;SDS011;58429;49.826;10.880;2023-04-29T01:57:34;164.5;;;12;;
4325;SDS011;58429;49.826;10.880;2023-04-29T01:58:34;31.3;;;6.7;;
4325;SDS011;58429;49.826;10.880;2023-04-29T01:59:34;31.3;;;6.7;;
4325;SDS011;58429;49.826;10.880;2023-04-29T02:00:34;31.3;;;6.7;;
4325;SDS011;58429;49.826;10.880;2023-04-29T02:01:34;16;;;6;;
4325;SDS011;58429;49.826;10.880;2023-04-29T02:02:34;16;;;6;;
4325;SDS011;58429;49.826;10.880;2023-04-29T02:03:34;16;;;6;;
4325;SDS011;58429;49.826;10.880;2023-04-29T02:04:34;11.2;;;4.5;;
4325;SDS011;58429;49.826;10.880;2023-04-29T02:05:34;11.2;;;4.5;;
4325;SDS011;58429;49.826;10.880;2023-04-29T02:06:34;11.2;;;4.5;;
4325;SDS011;58429;49.826;10.880;2023-04-29T02:07:34;14.3;;;5.6;;
4325;SDS011;58429;49.826;10.880;2023-04-29T02:08:34;14.3;;;5.6;;
4325;SDS011;58429;49.826;10.880;2023-04-29T02:09:34;14.3;;;5.6;;
4325;SDS011;58429;49.826;10.880;2023-04-29T02:10:34;14;;;5.4;;
4325;SDS011;58429;49.826;10.880;2023-04-29T02:11:34;14;;;5.4;;
4325;SDS011;58429;49.826;10.880;2023-04-29T02:12:34;14;;;5.4;;
4325;SDS011;58429;49.826;10.880;2023-04-29T02:13:34;80.6;;;8.7;;
4325;SDS011;58429;49.826;10.880;2023-04-29T02:14:34;80.6;;;8.7;;
4325;SDS011;58429;49.826;10.880;2023-04-29T02:15:34;80.6;;;8.7;;
4325;SDS011;58429;49.826;10.880;2023-04-29T02:16:34;53.7;;;8.3;;
4325;SDS011;58429;49.826;10.880;2023-04-29T02:17:34;53.7;;;8.3;;
4325;SDS011;58429;49.826;10.880;2023-04-29T02:18:34;53.7;;;8.3;;
4325;SDS011;58429;49.826;10.880;2023-04-29T02:19:34;84.8;;;8.5;;
4325;SDS011;58429;49.826;10.880;2023-04-29T02:20:34;84.8;;;8.5;;
4325;SDS011;58429;49.826;10.880;2023-04-29T02:21:34;84.8;;;8.5;;
4325;SDS011;58429;49.826;10.880;2023-04-29T02:22:34;165.7;;;11.4;;
4325;SDS011;58429;49.826;10.880;2023-04-29T02:23:34;165.7;;;11.4;;
4325;SDS011;58429;49.826;10.880;2023-04-29T02:24:34;165.7;;;11.4;;
4325;SDS011;58429;49.826;10.880;2023-04-29T02:25:34;40.1;;;6.6;;
4325;SDS011;58429;49.826;10.880;2023-04-29T02:26:34;40.1;;;6.6;;
4325;SDS011;58429;49.826;10.880;2023-04-29T02:27:34;40.1;;;6.6;;
4325;SDS011;58429;49.826;10.880;2023-04-29T02:28:34;88.5;;;8.4;;
4325;SDS011;58429;49.826;10.880;2023-04-29T02:29:34;88.5;;;8.4;;
4325;SDS011;58429;49.826;10.880;2023-04-29T02:30:34;88.5;;;8.4;;
4325;SDS011;58429;49.826;10.880;2023-04-29T02:31:34;160.9;;;10.7;;
4325;SDS011;58429;49.826;10.880;2023-04-29T02:32:34;160.9;;;10.7;;
4325;SDS011;58429;49.826;10.880;2023-04-29T02:33:34;160.9;;;10.7;;
4325;SDS011;58429;49.826;10.880;2023-04-29T02:34:34;35.8;;;5.7;;
4325;SDS011;58429;49.826;10.880;2023-04-29T02:35:34;35.8;;;5.7;;
4325;SDS011;58429;49.826;10.880;2023-04-29T02:36:34;35.8;;;5.7;;
4325;SDS011;58429;49.826;10.880;2023-04-29T02:37:34;47.7;;;6.1;;
4325;SDS011;58429;49.826;10.880;2023-04-29T02:38:34;47.7;;;6.1;;
4325;SDS011;58429;49.826;10.880;2023-04-29T02:39:34;47.7;;;6.1;;
4325;SDS011;58429;49.826;10.880;2023-04-29T02:40:34;16.1;;;4.8;;
4325;SDS011;58429;49.826;10.880;2023-04-29T02:41:34;16.1;;;4.8;;
4325;SDS011;58429;49.826;10.880;2023-04-29T02:42:34;16.1;;;4.8;;
4325;SDS011;58429;49.826;10.880;2023-04-29T02:43:34;24.6;;;5;;
4325;SDS011;58429;49.826;10.880;2023-04-29T02:44:34;24.6;;;5;;
4325;SDS011;58429;49.826;10.880;2023-04-29T02:45:34;24.6;;;5;;
4325;SDS011;58429;49.826;10.880;2023-04-29T02:46:34;11.6;;;3.9;;
4325;SDS011;58429;49.826;10.880;2023-04-29T02:47:34;11.6;;;3.9;;
4325;SDS011;58429;49.826;10.880;2023-04-29T02:48:34;11.6;;;3.9;;
4325;SDS011;58429;49.826;10.880;2023-04-29T02:49:34;30;;;4.9;;
4325;SDS011;58429;49.826;10.880;2023-04-29T02:50:34;30;;;4.9;;
4325;SDS011;58429;49.826;10.880;2023-04-29T02:51:34;30;;;4.9;;
4325;SDS011;58429;49.826;10.880;2023-04-29T02:52:34;31.3;;;5.4;;
4325;SDS011;58429;49.826;10.880;2023-04-29T02:53:34;31.3;;;5.4;;
4325;SDS011;58429;49.826;10.880;2023-04-29T02:54:34;31.3;;;5.4;;
4325;SDS011;58429;49.826;10.880;2023-04-29T02:55:34;103.7;;;8.5;;
4325;SDS011;58429;49.826;10.880;2023-04-29T02:56:34;103.7;;;8.5;;
4325;SDS011;58429;49.826;10.880;2023-04-29T02:57:34;103.7;;;8.5;;
4325;SDS011;58429;49.826;10.880;2023-04-29T02:58:34;80.6;;;6.9;;
4325;SDS011;58429;49.826;10.880;2023-04-29T02:59:34;80.6;;;6.9;;
4325;SDS011;58429;49.826;10.880;2023-04-29T03:00:34;80.6;;;6.9;;
4325;SDS011;58429;49.826;10.880;2023-04-29T03:01:34;28.5;;;5.2;;
4325;SDS011;58429;49.826;10.880;2023-04-29T03:02:34;28.5;;;5.2;;
4325;SDS011;58429;49.826;10.880;2023-04-29T03:03:34;28.5;;;5.2;;
4325;SDS011;58429;49.826;10.880;2023-04-29T03:04:34;28.5;;;5.2;;
4325;SDS011;58429;49.826;10.880;2023-04-29T03:05:34;25.3;;;5.7;;
4325;SDS011;58429;49.826;10.880;2023-04-29T03:06:34;25.3;;;5.7;;
4325;SDS011;58429;49.826;10.880;2023-04-29T03:07:34;25.3;;;5.7;;
4325;SDS011;58429;49.826;10.880;2023-04-29T03:08:34;14.3;;;5.2;;
4325;SDS011;58429;49.826;10.880;2023-04-29T03:09:34;14.3;;;5.2;;
4325;SDS011;58429;49.826;10.880;2023-04-29T03:10:34;14.3;;;5.2;;
4325;SDS011;58429;49.826;10.880;2023-04-29T03:11:34;27.5;;;5.8;;
4325;SDS011;58429;49.826;10.880;2023-04-29T03:12:34;27.5;;;5.8;;
4325;SDS011;58429;49.826;10.880;2023-04-29T03:13:34;27.5;;;5.8;;
4325;SDS011;58429;49.826;10.880;2023-04-29T03:14:34;21.3;;;6.3;;
4325;SDS011;58429;49.826;10.880;2023-04-29T03:15:34;21.3;;;6.3;;
4325;SDS011;58429;49.826;10.880;2023-04-29T03:16:34;21.3;;;6.3;;
4325;SDS011;58429;49.826;10.880;2023-04-29T03:17:34;46.7;;;7.1;;
4325;SDS011;58429;49.826;10.880;2023-04-29T03:18:34;46.7;;;7.1;;
4325;SDS011;58429;49.826;10.880;2023-04-29T03:19:34;46.7;;;7.1;;
4325;SDS011;58429;49.826;10.880;2023-04-29T03:20:34;68.6;;;8.3;;
4325;SDS011;58429;49.826;10.880;2023-04-29T03:21:34;68.6;;;8.3;;
4325;SDS011;58429;49.826;10.880;2023-04-29T03:22:34;68.6;;;8.3;;
4325;SDS011;58429;49.826;10.880;2023-04-29T03:23:35;45.7;;;6.4;;
4325;SDS011;58429;49.826;10.880;2023-04-29T03:24:34;45.7;;;6.4;;
4325;SDS011;58429;49.826;10.880;2023-04-29T03:25:34;45.7;;;6.4;;
4325;SDS011;58429;49.826;10.880;2023-04-29T03:26:34;14.6;;;4.3;;
4325;SDS011;58429;49.826;10.880;2023-04-29T03:27:34;14.6;;;4.3;;
4325;SDS011;58429;49.826;10.880;2023-04-29T03:28:34;14.6;;;4.3;;
4325;SDS011;58429;49.826;10.880;2023-04-29T03:29:34;12;;;3.8;;
4325;SDS011;58429;49.826;10.880;2023-04-29T03:30:34;12;;;3.8;;
4325;SDS011;58429;49.826;10.880;2023-04-29T03:31:34;12;;;3.8;;
4325;SDS011;58429;49.826;10.880;2023-04-29T03:32:34;22.6;;;4.8;;
4325;SDS011;58429;49.826;10.880;2023-04-29T03:33:34;22.6;;;4.8;;
4325;SDS011;58429;49.826;10.880;2023-04-29T03:34:34;22.6;;;4.8;;
4325;SDS011;58429;49.826;10.880;2023-04-29T03:35:34;119.7;;;9.4;;
4325;SDS011;58429;49.826;10.880;2023-04-29T03:36:34;119.7;;;9.4;;
4325;SDS011;58429;49.826;10.880;2023-04-29T03:37:34;119.7;;;9.4;;
4325;SDS011;58429;49.826;10.880;2023-04-29T03:38:34;91.8;;;7.5;;
4325;SDS011;58429;49.826;10.880;2023-04-29T03:39:34;91.8;;;7.5;;
4325;SDS011;58429;49.826;10.880;2023-04-29T03:40:34;91.8;;;7.5;;
4325;SDS011;58429;49.826;10.880;2023-04-29T03:41:34;77.2;;;7.2;;
4325;SDS011;58429;49.826;10.880;2023-04-29T03:42:34;77.2;;;7.2;;
4325;SDS011;58429;49.826;10.880;2023-04-29T03:43:34;77.2;;;7.2;;
4325;SDS011;58429;49.826;10.880;2023-04-29T03:44:34;107.3;;;9;;
4325;SDS011;58429;49.826;10.880;2023-04-29T03:45:34;107.3;;;9;;
4325;SDS011;58429;49.826;10.880;2023-04-29T03:46:34;107.3;;;9;;
4325;SDS011;58429;49.826;10.880;2023-04-29T03:47:34;30.3;;;5.4;;
4325;SDS011;58429;49.826;10.880;2023-04-29T03:48:34;30.3;;;5.4;;
4325;SDS011;58429;49.826;10.880;2023-04-29T03:49:34;30.3;;;5.4;;
4325;SDS011;58429;49.826;10.880;2023-04-29T03:50:34;22.4;;;5.1;;
4325;SDS011;58429;49.826;10.880;2023-04-29T03:51:34;22.4;;;5.1;;
4325;SDS011;58429;49.826;10.880;2023-04-29T03:52:34;22.4;;;5.1;;
4325;SDS011;58429;49.826;10.880;2023-04-29T03:53:34;51.5;;;6;;
4325;SDS011;58429;49.826;10.880;2023-04-29T03:54:34;51.5;;;6;;
4325;SDS011;58429;49.826;10.880;2023-04-29T03:55:34;51.5;;;6;;
4325;SDS011;58429;49.826;10.880;2023-04-29T03:56:34;23.5;;;5;;
4325;SDS011;58429;49.826;10.880;2023-04-29T03:57:34;23.5;;;5;;
4325;SDS011;58429;49.826;10.880;2023-04-29T03:58:34;23.5;;;5;;
4325;SDS011;58429;49.826;10.880;2023-04-29T03:59:34;9.1;;;3.8;;
4325;SDS011;58429;49.826;10.880;2023-04-29T04:00:34;9.1;;;3.8;;
4325;SDS011;58429;49.826;10.880;2023-04-29T04:01:34;9.1;;;3.8;;
4325;SDS011;58429;49.826;10.880;2023-04-29T04:02:34;150.8;;;10.3;;
4325;SDS011;58429;49.826;10.880;2023-04-29T04:03:34;150.8;;;10.3;;
4325;SDS011;58429;49.826;10.880;2023-04-29T04:04:34;150.8;;;10.3;;
4325;SDS011;58429;49.826;10.880;2023-04-29T04:05:34;12.2;;;4.3;;
4325;SDS011;58429;49.826;10.880;2023-04-29T04:06:34;12.2;;;4.3;;
4325;SDS011;58429;49.826;10.880;2023-04-29T04:07:34;12.2;;;4.3;;
4325;SDS011;58429;49.826;10.880;2023-04-29T04:08:34;15.4;;;4.7;;
4325;SDS011;58429;49.826;10.880;2023-04-29T04:09:34;15.4;;;4.7;;
4325;SDS011;58429;49.826;10.880;2023-04-29T04:10:34;15.4;;;4.7;;
4325;SDS011;58429;49.826;10.880;2023-04-29T04:11:34;10;;;4;;
4325;SDS011;58429;49.826;10.880;2023-04-29T04:12:34;10;;;4;;
4325;SDS011;58429;49.826;10.880;2023-04-29T04:13:34;10;;;4;;
4325;SDS011;58429;49.826;10.880;2023-04-29T04:14:34;8.3;;;3.8;;
4325;SDS011;58429;49.826;10.880;2023-04-29T04:15:34;8.3;;;3.8;;
4325;SDS011;58429;49.826;10.880;2023-04-29T04:16:34;8.3;;;3.8;;
4325;SDS011;58429;49.826;10.880;2023-04-29T04:17:34;8.8;;;3.9;;
4325;SDS011;58429;49.826;10.880;2023-04-29T04:18:34;8.8;;;3.9;;
4325;SDS011;58429;49.826;10.880;2023-04-29T04:19:34;8.8;;;3.9;;
4325;SDS011;58429;49.826;10.880;2023-04-29T04:20:35;9.1;;;4;;
4325;SDS011;58429;49.826;10.880;2023-04-29T04:21:34;9.1;;;4;;
4325;SDS011;58429;49.826;10.880;2023-04-29T04:22:34;9.1;;;4;;
4325;SDS011;58429;49.826;10.880;2023-04-29T04:23:34;30;;;5.1;;
4325;SDS011;58429;49.826;10.880;2023-04-29T04:24:34;30;;;5.1;;
4325;SDS011;58429;49.826;10.880;2023-04-29T04:25:34;30;;;5.1;;
4325;SDS011;58429;49.826;10.880;2023-04-29T04:26:34;21.5;;;5.3;;
4325;SDS011;58429;49.826;10.880;2023-04-29T04:27:34;21.5;;;5.3;;
4325;SDS011;58429;49.826;10.880;2023-04-29T04:28:34;21.5;;;5.3;;
4325;SDS011;58429;49.826;10.880;2023-04-29T04:29:34;9.6;;;4.4;;
4325;SDS011;58429;49.826;10.880;2023-04-29T04:30:34;9.6;;;4.4;;
4325;SDS011;58429;49.826;10.880;2023-04-29T04:31:34;9.6;;;4.4;;
4325;SDS011;58429;49.826;10.880;2023-04-29T04:32:34;8.5;;;3.6;;
4325;SDS011;58429;49.826;10.880;2023-04-29T04:33:34;8.5;;;3.6;;
4325;SDS011;58429;49.826;10.880;2023-04-29T04:34:34;8.5;;;3.6;;
4325;SDS011;58429;49.826;10.880;2023-04-29T04:35:34;14.2;;;4.2;;
4325;SDS011;58429;49.826;10.880;2023-04-29T04:36:34;14.2;;;4.2;;
4325;SDS011;58429;49.826;10.880;2023-04-29T04:37:34;14.2;;;4.2;;
4325;SDS011;58429;49.826;10.880;2023-04-29T04:38:34;49.5;;;6.6;;
4325;SDS011;58429;49.826;10.880;2023-04-29T04:39:34;49.5;;;6.6;;
4325;SDS011;58429;49.826;10.880;2023-04-29T04:40:34;49.5;;;6.6;;
4325;SDS011;58429;49.826;10.880;2023-04-29T04:41:34;19.9;;;5.1;;
4325;SDS011;58429;49.826;10.880;2023-04-29T04:42:34;19.9;;;5.1;;
4325;SDS011;58429;49.826;10.880;2023-04-29T04:43:34;19.9;;;5.1;;
4325;SDS011;58429;49.826;10.880;2023-04-29T04:44:34;9.3;;;4.1;;
4325;SDS011;58429;49.826;10.880;2023-04-29T04:45:34;9.3;;;4.1;;
4325;SDS011;58429;49.826;10.880;2023-04-29T04:46:34;9.3;;;4.1;;
4325;SDS011;58429;49.826;10.880;2023-04-29T04:47:34;8.1;;;3.7;;
4325;SDS011;58429;49.826;10.880;2023-04-29T04:48:34;8.1;;;3.7;;
4325;SDS011;58429;49.826;10.880;2023-04-29T04:49:34;8.1;;;3.7;;
4325;SDS011;58429;49.826;10.880;2023-04-29T04:50:34;8.3;;;3.6;;
4325;SDS011;58429;49.826;10.880;2023-04-29T04:51:34;8.3;;;3.6;;
4325;SDS011;58429;49.826;10.880;2023-04-29T04:52:34;8.3;;;3.6;;
4325;SDS011;58429;49.826;10.880;2023-04-29T04:53:34;8.2;;;3.7;;
4325;SDS011;58429;49.826;10.880;2023-04-29T04:54:34;8.2;;;3.7;;
4325;SDS011;58429;49.826;10.880;2023-04-29T04:55:34;8.2;;;3.7;;
4325;SDS011;58429;49.826;10.880;2023-04-29T04:56:34;8.2;;;3.7;;
4325;SDS011;58429;49.826;10.880;2023-04-29T04:57:34;7.7;;;3.3;;
4325;SDS011;58429;49.826;10.880;2023-04-29T04:58:34;7.7;;;3.3;;
4325;SDS011;58429;49.826;10.880;2023-04-29T04:59:34;7.7;;;3.3;;
4325;SDS011;58429;49.826;10.880;2023-04-29T05:00:34;7.6;;;3.2;;
4325;SDS011;58429;49.826;10.880;2023-04-29T05:01:34;7.6;;;3.2;;
4325;SDS011;58429;49.826;10.880;2023-04-29T05:02:34;7.6;;;3.2;;
4325;SDS011;58429;49.826;10.880;2023-04-29T05:03:34;7.3;;;3.6;;
4325;SDS011;58429;49.826;10.880;2023-04-29T05:04:34;7.3;;;3.6;;
4325;SDS011;58429;49.826;10.880;2023-04-29T05:05:34;7.3;;;3.6;;
4325;SDS011;58429;49.826;10.880;2023-04-29T05:06:34;7.7;;;3.4;;
4325;SDS011;58429;49.826;10.880;2023-04-29T05:07:35;7.7;;;3.4;;
4325;SDS011;58429;49.826;10.880;2023-04-29T05:08:34;7.7;;;3.4;;
4325;SDS011;58429;49.826;10.880;2023-04-29T05:09:34;7.3;;;3.4;;
4325;SDS011;58429;49.826;10.880;2023-04-29T05:10:34;7.3;;;3.4;;
4325;SDS011;58429;49.826;10.880;2023-04-29T05:11:34;7.3;;;3.4;;
4325;SDS011;58429;49.826;10.880;2023-04-29T05:12:34;7.2;;;3.3;;
4325;SDS011;58429;49.826;10.880;2023-04-29T05:13:34;7.2;;;3.3;;
4325;SDS011;58429;49.826;10.880;2023-04-29T05:14:34;7.2;;;3.3;;
4325;SDS011;58429;49.826;10.880;2023-04-29T05:15:34;7.6;;;3.5;;
4325;SDS011;58429;49.826;10.880;2023-04-29T05:16:34;7.6;;;3.5;;
4325;SDS011;58429;49.826;10.880;2023-04-29T05:17:34;7.6;;;3.5;;
4325;SDS011;58429;49.826;10.880;2023-04-29T05:18:34;8;;;3.7;;
4325;SDS011;58429;49.826;10.880;2023-04-29T05:19:34;8;;;3.7;;
4325;SDS011;58429;49.826;10.880;2023-04-29T05:20:35;8;;;3.7;;
4325;SDS011;58429;49.826;10.880;2023-04-29T05:21:34;7.9;;;3.7;;
4325;SDS011;58429;49.826;10.880;2023-04-29T05:22:34;7.9;;;3.7;;
4325;SDS011;58429;49.826;10.880;2023-04-29T05:23:35;7.9;;;3.7;;
4325;SDS011;58429;49.826;10.880;2023-04-29T05:24:34;7.3;;;3.4;;
4325;SDS011;58429;49.826;10.880;2023-04-29T05:25:34;7.3;;;3.4;;
4325;SDS011;58429;49.826;10.880;2023-04-29T05:26:34;7.3;;;3.4;;
4325;SDS011;58429;49.826;10.880;2023-04-29T05:27:35;7.5;;;3.4;;
4325;SDS011;58429;49.826;10.880;2023-04-29T05:28:34;7.5;;;3.4;;
4325;SDS011;58429;49.826;10.880;2023-04-29T05:29:35;7.5;;;3.4;;
4325;SDS011;58429;49.826;10.880;2023-04-29T05:30:34;7.7;;;3.6;;
4325;SDS011;58429;49.826;10.880;2023-04-29T05:31:34;7.7;;;3.6;;
4325;SDS011;58429;49.826;10.880;2023-04-29T05:32:34;7.7;;;3.6;;
4325;SDS011;58429;49.826;10.880;2023-04-29T05:33:34;7.7;;;3.2;;
4325;SDS011;58429;49.826;10.880;2023-04-29T05:34:35;7.7;;;3.2;;
4325;SDS011;58429;49.826;10.880;2023-04-29T05:35:34;7.7;;;3.2;;
4325;SDS011;58429;49.826;10.880;2023-04-29T05:36:34;8.1;;;4;;
4325;SDS011;58429;49.826;10.880;2023-04-29T05:37:35;8.1;;;4;;
4325;SDS011;58429;49.826;10.880;2023-04-29T05:38:34;8.1;;;4;;
4325;SDS011;58429;49.826;10.880;2023-04-29T05:39:35;8;;;4;;
4325;SDS011;58429;49.826;10.880;2023-04-29T05:40:34;8;;;4;;
4325;SDS011;58429;49.826;10.880;2023-04-29T05:41:35;8;;;4;;
4325;SDS011;58429;49.826;10.880;2023-04-29T05:42:34;8.8;;;4.1;;
4325;SDS011;58429;49.826;10.880;2023-04-29T05:43:34;8.8;;;4.1;;
4325;SDS011;58429;49.826;10.880;2023-04-29T05:44:34;8.8;;;4.1;;
4325;SDS011;58429;49.826;10.880;2023-04-29T05:45:34;10.1;;;4.9;;
4325;SDS011;58429;49.826;10.880;2023-04-29T05:46:34;10.1;;;4.9;;
4325;SDS011;58429;49.826;10.880;2023-04-29T05:47:35;10.1;;;4.9;;
4325;SDS011;58429;49.826;10.880;2023-04-29T05:48:34;9.7;;;4.4;;
4325;SDS011;58429;49.826;10.880;2023-04-29T05:49:35;9.7;;;4.4;;
4325;SDS011;58429;49.826;10.880;2023-04-29T05:50:34;9.7;;;4.4;;
4325;SDS011;58429;49.826;10.880;2023-04-29T05:51:34;9.4;;;4.8;;
4325;SDS011;58429;49.826;10.880;2023-04-29T05:52:34;9.4;;;4.8;;
4325;SDS011;58429;49.826;10.880;2023-04-29T05:53:34;9.4;;;4.8;;
4325;SDS011;58429;49.826;10.880;2023-04-29T05:54:34;8.7;;;4.5;;
4325;SDS011;58429;49.826;10.880;2023-04-29T05:55:35;8.7;;;4.5;;
4325;SDS011;58429;49.826;10.880;2023-04-29T05:56:34;8.7;;;4.5;;
4325;SDS011;58429;49.826;10.880;2023-04-29T05:57:34;9.6;;;4.7;;
4325;SDS011;58429;49.826;10.880;2023-04-29T05:58:35;9.6;;;4.7;;
4325;SDS011;58429;49.826;10.880;2023-04-29T05:59:34;9.6;;;4.7;;
4325;SDS011;58429;49.826;10.880;2023-04-29T06:00:34;9;;;4.5;;
4325;SDS011;58429;49.826;10.880;2023-04-29T06:01:35;9;;;4.5;;
4325;SDS011;58429;49.826;10.880;2023-04-29T06:02:34;9;;;4.5;;
4325;SDS011;58429;49.826;10.880;2023-04-29T06:03:34;8.9;;;4.4;;
4325;SDS011;58429;49.826;10.880;2023-04-29T06:04:34;8.9;;;4.4;;
4325;SDS011;58429;49.826;10.880;2023-04-29T06:05:35;8.9;;;4.4;;
4325;SDS011;58429;49.826;10.880;2023-04-29T06:06:34;8.8;;;4.3;;
4325;SDS011;58429;49.826;10.880;2023-04-29T06:07:35;8.8;;;4.3;;
4325;SDS011;58429;49.826;10.880;2023-04-29T06:08:35;8.8;;;4.3;;
4325;SDS011;58429;49.826;10.880;2023-04-29T06:09:35;9.4;;;4.3;;
4325;SDS011;58429;49.826;10.880;2023-04-29T06:10:34;9.4;;;4.3;;
4325;SDS011;58429;49.826;10.880;2023-04-29T06:11:35;9.4;;;4.3;;